Archival Weather

Kayes/Dag-Dag

Kayes/Dag-Dag, Mali (GAKD)

Report from: Thursday, September 21, 2023 9:00 PM UTC
Current time: Wednesday, May 29, 2024 11:42 PM UTC

Current weather – Weather history – Daily summaries
Weather forecast

Temperature29.0°C (84.2°F)
Heat index34.6°C (94.3°F)
Dew point25.0°C (77.0°F)
Winds 4 kts (2.1 m/s, 4.6 mph) West-Northwest (300°)
Clouds Sky clear
Altimeter29.91 in.Hg (1013 mB)
Relative humidity79 %
Density altitude2,039 ft. (621 m)
Remarks Ceiling and visibility OK
Flight conditions Visual Meteorological Conditions
Raw dataGAKD 212100Z 30004KT CAVOK 29/25 Q1013
An error has occurred. This application may no longer respond until reloaded. Reload 🗙